Time;durP1;ratioP1;P1;durP2;ratioP2;P2;SDS_P1;SDS_P2;PMS_P1;PMS_P2;Temp;Humidity;BMP_temperature;BMP_pressure;BME280_temperature;BME280_humidity;BME280_pressure;Samples;Min_cycle;Max_cycle;Signal;HPM_P1;HPM_P2
2021/12/20 00:00:51;;;;;;;57.30;28.13;;;;;;;2.24;100.00;96908.16;4940416;28;20026;-82
2021/12/20 00:03:17;;;;;;;57.33;28.23;;;;;;;2.34;100.00;96915.63;4956711;28;20034;-82
2021/12/20 00:05:42;;;;;;;57.58;27.50;;;;;;;2.25;100.00;96915.97;4940034;28;20031;-83
2021/12/20 00:08:08;;;;;;;65.38;31.23;;;;;;;2.30;100.00;96905.25;4942429;28;20114;-83
2021/12/20 00:10:34;;;;;;;58.60;29.30;;;;;;;2.31;100.00;96892.00;4923869;28;20035;-83
2021/12/20 00:12:59;;;;;;;64.25;31.05;;;;;;;2.34;100.00;96896.31;4941847;28;20407;-85
2021/12/20 00:15:25;;;;;;;64.47;33.05;;;;;;;2.38;100.00;96901.38;4924435;29;20041;-83
2021/12/20 00:17:51;;;;;;;70.93;33.05;;;;;;;2.29;100.00;96903.53;4947325;28;20525;-82
2021/12/20 00:20:17;;;;;;;68.97;33.30;;;;;;;2.26;100.00;96890.47;4920960;29;20029;-82
2021/12/20 00:22:43;;;;;;;70.50;36.30;;;;;;;2.27;100.00;96890.41;4938528;28;20506;-83
2021/12/20 00:25:10;;;;;;;89.10;43.03;;;;;;;2.39;100.00;96907.53;4942722;28;20035;-81
2021/12/20 00:27:36;;;;;;;74.57;37.10;;;;;;;2.43;100.00;96915.25;4928519;28;20034;-82
2021/12/20 00:30:06;;;;;;;75.35;36.40;;;;;;;2.51;100.00;96913.19;4928733;28;20031;-82
2021/12/20 00:32:32;;;;;;;56.65;28.80;;;;;;;2.47;100.00;96919.50;4926066;28;20034;-82
2021/12/20 00:34:57;;;;;;;72.35;30.63;;;;;;;2.42;100.00;96905.63;4942135;28;20502;-82
2021/12/20 00:40:21;;;;;;;87.75;41.70;;;;;;;2.44;100.00;96927.53;4950741;28;20021;-82
2021/12/20 00:42:59;;;;;;;98.95;44.75;;;;;;;2.32;100.00;96917.47;4933991;28;20112;-82
2021/12/20 00:45:30;;;;;;;88.40;39.95;;;;;;;2.33;100.00;96932.38;4927757;29;20476;-81
2021/12/20 00:47:56;;;;;;;92.82;42.97;;;;;;;2.34;100.00;96931.44;4941714;28;20031;-82
2021/12/20 00:50:23;;;;;;;92.13;43.17;;;;;;;2.12;100.00;96917.41;4933638;29;20154;-82
2021/12/20 00:52:49;;;;;;;89.43;41.63;;;;;;;2.23;100.00;96923.09;4920106;28;20023;-83
2021/12/20 00:55:17;;;;;;;97.80;46.78;;;;;;;2.23;100.00;96923.09;4938765;28;20058;-81
2021/12/20 00:57:47;;;;;;;86.57;40.85;;;;;;;2.25;100.00;96923.91;4925349;28;20094;-82
2021/12/20 01:00:15;;;;;;;80.90;40.33;;;;;;;2.17;100.00;96921.56;4951508;28;20026;-82
2021/12/20 01:02:41;;;;;;;82.80;39.35;;;;;;;2.12;100.00;96933.22;4933820;28;20034;-82
2021/12/20 01:05:08;;;;;;;74.60;36.30;;;;;;;2.01;100.00;96924.84;4935435;28;20083;-83
2021/12/20 01:07:33;;;;;;;76.05;36.90;;;;;;;2.03;100.00;96908.03;4930427;28;20122;-83
2021/12/20 01:10:03;;;;;;;70.65;34.65;;;;;;;2.12;100.00;96927.97;4936439;28;20514;-81
2021/12/20 01:12:34;;;;;;;75.15;35.25;;;;;;;2.05;100.00;96910.63;4920886;29;20038;-82
2021/12/20 01:15:01;;;;;;;70.57;33.58;;;;;;;2.15;100.00;96914.66;4928941;28;20406;-82
2021/12/20 01:17:27;;;;;;;70.70;34.13;;;;;;;2.14;100.00;96920.84;4939432;28;20026;-83
2021/12/20 01:19:53;;;;;;;72.97;35.35;;;;;;;2.23;100.00;96920.47;4921856;28;20096;-82
2021/12/20 01:22:19;;;;;;;75.97;36.05;;;;;;;2.26;100.00;96925.63;4941491;28;20472;-83
2021/12/20 01:24:44;;;;;;;71.93;34.17;;;;;;;2.19;100.00;96930.28;4928698;28;20038;-81
2021/12/20 01:27:10;;;;;;;62.95;31.10;;;;;;;2.19;100.00;96922.38;4935435;28;20031;-82
2021/12/20 01:29:35;;;;;;;59.80;28.80;;;;;;;1.91;100.00;96868.97;4950883;28;20027;-83
2021/12/20 01:32:01;;;;;;;58.53;27.60;;;;;;;2.18;100.00;96919.81;4938988;28;20030;-82
2021/12/20 01:34:27;;;;;;;51.03;26.48;;;;;;;2.26;100.00;96920.34;4936375;28;20027;-83
2021/12/20 01:36:52;;;;;;;59.08;27.27;;;;;;;2.25;100.00;96918.63;4939118;28;20031;-83
2021/12/20 01:39:18;;;;;;;78.05;38.28;;;;;;;2.36;100.00;96923.50;4929231;28;20019;-82
2021/12/20 01:41:44;;;;;;;59.17;29.25;;;;;;;2.41;100.00;96924.16;4926503;28;20030;-82
2021/12/20 01:44:11;;;;;;;61.75;29.88;;;;;;;2.54;100.00;96935.94;4936988;28;20038;-83
2021/12/20 01:46:37;;;;;;;54.22;26.13;;;;;;;2.56;100.00;96942.88;4920160;29;20024;-82
2021/12/20 01:49:05;;;;;;;50.53;25.90;;;;;;;2.55;100.00;96938.50;4928363;28;20031;-82
2021/12/20 01:51:48;;;;;;;48.35;24.17;;;;;;;2.55;100.00;96949.06;4920162;29;20455;-82
2021/12/20 01:54:14;;;;;;;46.95;24.63;;;;;;;2.41;100.00;96939.97;4930873;28;20070;-81
2021/12/20 01:56:42;;;;;;;52.80;25.58;;;;;;;2.32;100.00;96924.50;4938625;28;20046;-81
2021/12/20 01:59:09;;;;;;;53.08;26.25;;;;;;;2.38;100.00;96940.97;4936388;28;20023;-83
2021/12/20 02:01:36;;;;;;;51.50;24.27;;;;;;;2.35;100.00;96927.91;4938470;29;20027;-83
2021/12/20 02:04:06;;;;;;;48.33;24.05;;;;;;;2.37;100.00;96944.50;4930223;28;20023;-82
2021/12/20 02:06:40;;;;;;;51.30;23.75;;;;;;;2.31;100.00;96928.94;4943564;28;20043;-82
2021/12/20 02:09:12;;;;;;;54.72;26.08;;;;;;;2.24;100.00;96931.88;4937274;28;20030;-81
2021/12/20 02:11:43;;;;;;;62.03;30.67;;;;;;;2.27;100.00;96937.91;4921088;29;20059;-81
2021/12/20 02:14:10;;;;;;;66.88;32.72;;;;;;;2.26;100.00;96936.19;4923623;28;20067;-82
2021/12/20 02:16:36;;;;;;;72.97;33.75;;;;;;;2.26;100.00;96922.13;4923416;28;20403;-82
2021/12/20 02:19:11;;;;;;;70.53;35.67;;;;;;;2.38;100.00;96922.50;4929649;28;20027;-81
2021/12/20 02:21:37;;;;;;;90.60;42.60;;;;;;;2.40;100.00;96927.72;4936350;28;20059;-82
2021/12/20 02:24:03;;;;;;;97.65;45.22;;;;;;;2.40;100.00;96923.28;4926641;28;20523;-82
2021/12/20 02:26:29;;;;;;;88.97;41.08;;;;;;;2.42;100.00;96924.09;4931166;28;20498;-82
2021/12/20 02:28:57;;;;;;;90.13;39.40;;;;;;;2.42;100.00;96917.97;4928032;29;20038;-82
2021/12/20 02:36:59;;;;;;;89.53;42.10;;;;;;;2.45;100.00;96907.28;4944170;28;20434;-82
2021/12/20 02:39:25;;;;;;;68.35;32.17;;;;;;;2.52;100.00;96919.31;4925255;28;20065;-82
2021/12/20 02:41:51;;;;;;;69.95;33.22;;;;;;;2.55;100.00;96932.41;4927136;28;20047;-82
2021/12/20 02:44:19;;;;;;;71.30;35.38;;;;;;;2.52;100.00;96928.06;4941547;28;20038;-82
2021/12/20 02:47:28;;;;;;;72.18;35.08;;;;;;;2.51;100.00;96928.16;4942250;28;20031;-82
2021/12/20 02:49:37;;;;;;;64.82;33.42;;;;;;;2.46;100.00;96919.56;4959434;28;20043;-81
2021/12/20 02:52:06;;;;;;;65.25;30.90;;;;;;;2.44;100.00;96929.31;4941504;28;20085;-81
2021/12/20 02:54:31;;;;;;;67.50;31.08;;;;;;;2.27;100.00;96915.94;4936818;29;20055;-81
2021/12/20 02:56:57;;;;;;;62.42;30.90;;;;;;;2.28;100.00;96901.84;4924299;29;20091;-82
2021/12/20 02:59:41;;;;;;;53.83;25.25;;;;;;;2.33;100.00;96892.81;4938267;29;20023;-80
2021/12/20 03:02:09;;;;;;;52.95;25.30;;;;;;;2.22;100.00;96873.91;4947753;29;20106;-82
2021/12/20 03:04:36;;;;;;;51.78;25.63;;;;;;;2.39;100.00;96892.56;4938368;29;20127;-82
2021/12/20 03:07:08;;;;;;;61.17;30.52;;;;;;;2.36;100.00;96894.47;4925346;29;20534;-82
2021/12/20 03:09:36;;;;;;;;;;;;;;;2.32;100.00;96901.63;4926147;29;20074;-82
2021/12/20 03:12:03;;;;;;;51.88;23.27;;;;;;;2.17;100.00;96889.06;4941191;29;19918;-82
2021/12/20 03:14:35;;;;;;;43.20;23.85;;;;;;;2.22;100.00;96902.91;4924891;29;20027;-82
2021/12/20 03:17:01;;;;;;;47.78;23.27;;;;;;;2.05;100.00;96897.44;4935976;29;20091;-82
2021/12/20 03:19:27;;;;;;;55.83;25.85;;;;;;;2.21;100.00;96917.03;4938022;29;20082;-81
2021/12/20 03:21:53;;;;;;;52.85;26.48;;;;;;;2.26;100.00;96904.53;4926192;28;20062;-81
2021/12/20 03:24:19;;;;;;;57.55;27.05;;;;;;;2.17;100.00;96891.69;4918904;29;20063;-82
2021/12/20 03:26:44;;;;;;;53.72;26.70;;;;;;;2.13;100.00;96905.91;4924009;29;20031;-81
2021/12/20 03:29:10;;;;;;;51.40;26.63;;;;;;;2.14;100.00;96905.00;4919486;29;20139;-82
2021/12/20 03:31:36;;;;;;;55.10;25.80;;;;;;;2.18;100.00;96911.88;4928121;29;20557;-82
2021/12/20 03:34:02;;;;;;;48.00;24.65;;;;;;;2.25;100.00;96915.97;4941154;29;20031;-82
2021/12/20 03:36:28;;;;;;;47.60;24.48;;;;;;;2.34;100.00;96896.31;4954066;29;20035;-81
2021/12/20 03:38:56;;;;;;;51.28;25.17;;;;;;;2.32;100.00;96899.00;4934622;29;20035;-81
2021/12/20 03:41:22;;;;;;;50.50;25.13;;;;;;;2.42;100.00;96916.19;4928272;29;20097;-81
2021/12/20 03:43:48;;;;;;;49.03;25.20;;;;;;;2.39;100.00;96915.44;4930334;29;20031;-81
2021/12/20 03:46:14;;;;;;;56.72;28.95;;;;;;;2.44;100.00;96913.47;4937193;29;20057;-82
2021/12/20 03:48:39;;;;;;;56.05;27.30;;;;;;;2.45;100.00;96918.72;4937684;29;20034;-82
2021/12/20 03:51:06;;;;;;;59.17;28.10;;;;;;;2.38;100.00;96913.72;4953621;29;20404;-82
2021/12/20 03:53:33;;;;;;;52.55;26.88;;;;;;;2.30;100.00;96903.50;4930477;29;20059;-82
2021/12/20 03:55:59;;;;;;;60.15;28.67;;;;;;;2.33;100.00;96919.19;4919133;28;20033;-83
2021/12/20 03:58:28;;;;;;;61.70;30.92;;;;;;;2.33;100.00;96918.34;4933380;28;20023;-82
2021/12/20 04:00:58;;;;;;;57.63;28.88;;;;;;;2.24;100.00;96906.38;4938397;28;20045;-81
2021/12/20 04:03:25;;;;;;;65.10;33.65;;;;;;;2.17;100.00;96895.19;4916620;29;20031;-82
2021/12/20 04:05:51;;;;;;;76.50;36.08;;;;;;;2.20;100.00;96899.50;4943223;28;20020;-82
2021/12/20 04:08:17;;;;;;;72.35;34.95;;;;;;;2.27;100.00;96900.97;4921832;28;20404;-81
2021/12/20 04:10:42;;;;;;;69.82;34.95;;;;;;;2.36;100.00;96910.28;4920798;28;20558;-82
2021/12/20 04:13:09;;;;;;;78.82;37.97;;;;;;;2.45;100.00;96899.38;4947312;28;20027;-81
2021/12/20 04:15:35;;;;;;;70.30;33.72;;;;;;;2.52;100.00;96891.13;4945442;29;20426;-81
2021/12/20 04:18:01;;;;;;;71.97;35.05;;;;;;;2.52;100.00;96895.56;4937354;28;20103;-81
2021/12/20 04:20:27;;;;;;;68.88;33.85;;;;;;;2.47;100.00;96897.50;4936893;28;20134;-82
2021/12/20 04:22:52;;;;;;;58.70;27.45;;;;;;;2.67;100.00;96894.94;4939457;28;20023;-81
2021/12/20 04:25:18;;;;;;;51.63;24.88;;;;;;;2.78;100.00;96881.28;4923034;28;20090;-81
2021/12/20 04:27:43;;;;;;;36.08;19.25;;;;;;;2.91;100.00;96882.47;4939755;28;20023;-83
2021/12/20 04:30:11;;;;;;;27.15;13.85;;;;;;;3.09;100.00;96879.03;4937001;28;20388;-82
2021/12/20 04:32:38;;;;;;;17.85;9.65;;;;;;;3.46;99.17;96886.22;4927489;29;20402;-83
2021/12/20 04:35:05;;;;;;;24.75;13.10;;;;;;;3.60;97.99;96889.94;4936290;28;20054;-82
2021/12/20 04:37:30;;;;;;;28.50;15.38;;;;;;;3.72;97.18;96893.84;4932133;28;20029;-82
2021/12/20 04:39:57;;;;;;;41.83;20.52;;;;;;;3.79;97.12;96890.84;4939761;28;20098;-83
2021/12/20 04:42:22;;;;;;;32.65;17.77;;;;;;;3.82;96.39;96888.06;4937328;28;20027;-83
2021/12/20 04:44:48;;;;;;;35.47;17.75;;;;;;;3.89;93.60;96896.56;4939505;28;20029;-83
2021/12/20 04:47:14;;;;;;;36.15;18.58;;;;;;;4.03;93.68;96898.59;4925828;28;20177;-83
2021/12/20 04:49:39;;;;;;;35.72;18.70;;;;;;;3.94;95.87;96904.31;4920169;28;20112;-82
2021/12/20 04:52:05;;;;;;;36.67;19.00;;;;;;;3.56;99.04;96893.69;4947199;28;20030;-82
2021/12/20 04:54:30;;;;;;;36.67;17.98;;;;;;;3.56;100.00;96890.19;4920229;28;20186;-81
2021/12/20 04:56:56;;;;;;;36.53;18.55;;;;;;;3.49;100.00;96902.81;4920689;28;20443;-81
2021/12/20 04:59:21;;;;;;;37.72;18.95;;;;;;;3.39;100.00;96896.19;4930066;28;20109;-82
2021/12/20 05:01:47;;;;;;;36.97;19.10;;;;;;;3.39;100.00;96890.91;4950426;29;20077;-83
2021/12/20 05:04:13;;;;;;;40.55;20.92;;;;;;;3.46;100.00;96886.22;4930856;28;20026;-82
2021/12/20 05:06:38;;;;;;;35.33;18.77;;;;;;;3.53;100.00;96896.47;4939075;29;20407;-83
2021/12/20 05:09:05;;;;;;;31.33;16.90;;;;;;;3.59;99.09;96909.41;4936041;28;20038;-83
2021/12/20 05:11:34;;;;;;;36.13;17.27;;;;;;;3.61;99.62;96901.38;4938940;28;20398;-83
2021/12/20 05:14:00;;;;;;;33.53;18.10;;;;;;;3.67;99.05;96901.13;4922505;28;20491;-82
2021/12/20 05:16:26;;;;;;;73.63;47.58;;;;;;;3.67;99.59;96911.69;4936190;29;20110;-83
2021/12/20 05:18:52;;;;;;;35.40;18.88;;;;;;;3.75;99.20;96912.22;4922677;29;20058;-82
2021/12/20 05:21:17;;;;;;;43.95;22.42;;;;;;;3.62;99.20;96890.75;4937967;28;20031;-81
2021/12/20 05:23:43;;;;;;;59.08;27.17;;;;;;;3.68;100.00;96897.56;4932077;28;20566;-82
2021/12/20 05:26:09;;;;;;;46.17;23.00;;;;;;;3.62;100.00;96898.69;4924035;28;20031;-83
2021/12/20 05:28:34;;;;;;;63.38;28.85;;;;;;;3.68;98.84;96908.13;4930553;28;20035;-83
2021/12/20 05:31:00;;;;;;;63.40;30.27;;;;;;;3.74;96.48;96913.13;4939167;28;20082;-82
2021/12/20 05:33:26;;;;;;;94.13;44.25;;;;;;;3.75;96.56;96905.13;4938952;28;20041;-82
2021/12/20 05:35:52;;;;;;;70.82;35.55;;;;;;;3.77;95.36;96892.72;4936655;28;20050;-82
2021/12/20 05:38:18;;;;;;;104.07;44.92;;;;;;;3.86;95.18;96911.72;4938588;28;20467;-82
2021/12/20 05:40:43;;;;;;;83.45;41.72;;;;;;;3.88;93.49;96905.41;4935506;29;20039;-83
2021/12/20 05:43:09;;;;;;;84.05;41.72;;;;;;;3.87;95.25;96913.44;4919795;28;20443;-82
2021/12/20 05:45:35;;;;;;;90.95;45.22;;;;;;;3.78;95.83;96902.34;4930059;28;20042;-82
2021/12/20 05:48:02;;;;;;;98.57;46.20;;;;;;;3.82;96.48;96906.56;4942430;28;20031;-82
2021/12/20 05:50:27;;;;;;;93.03;43.58;;;;;;;3.87;95.11;96908.16;4939260;28;20058;-83
2021/12/20 05:52:56;;;;;;;83.47;40.45;;;;;;;3.91;93.46;96907.94;4924150;29;20063;-83
2021/12/20 05:55:22;;;;;;;72.35;33.88;;;;;;;3.95;90.58;96911.28;4931602;28;20054;-82
2021/12/20 05:57:48;;;;;;;46.88;23.58;;;;;;;4.07;87.87;96921.31;4923739;29;20101;-82
2021/12/20 06:00:18;;;;;;;41.67;19.83;;;;;;;4.19;85.13;96929.53;4928839;28;20213;-82
2021/12/20 06:02:45;;;;;;;44.35;22.13;;;;;;;4.27;87.27;96926.53;4929393;28;20127;-82
2021/12/20 06:05:14;;;;;;;53.83;26.30;;;;;;;4.31;85.66;96910.44;4952699;28;20057;-83
2021/12/20 06:07:42;;;;;;;33.88;17.55;;;;;;;4.50;78.24;96899.81;4931091;28;20034;-82
2021/12/20 06:10:12;;;;;;;34.90;17.88;;;;;;;4.66;77.20;96900.78;4926050;28;20054;-82
2021/12/20 07:47:28;;;;;;;8.40;5.00;;;;;;;10.75;48.87;96890.75;4772008;30;20513;-89
2021/12/20 08:04:07;;;;;;;9.18;5.45;;;;;;;7.53;56.52;96875.19;4807025;29;20159;-88
2021/12/20 08:06:33;;;;;;;8.65;4.88;;;;;;;7.55;56.62;96911.41;4858490;29;20037;-90
2021/12/20 08:08:59;;;;;;;9.85;5.32;;;;;;;7.31;57.86;96931.47;4942649;28;20097;-90
2021/12/20 08:11:24;;;;;;;8.02;4.40;;;;;;;7.02;59.19;96942.94;4948934;28;20097;-90
2021/12/20 08:13:50;;;;;;;6.93;3.65;;;;;;;6.95;60.00;96966.34;4949526;28;20034;-90
2021/12/20 08:16:16;;;;;;;6.68;4.53;;;;;;;6.79;61.04;96970.00;4949327;28;20596;-90
2021/12/20 08:18:43;;;;;;;9.27;5.32;;;;;;;6.45;60.52;96891.31;4948304;28;20054;-91
2021/12/20 08:21:10;;;;;;;15.32;7.03;;;;;;;6.87;61.27;96975.72;4950666;28;20031;-91
2021/12/20 08:23:37;;;;;;;10.65;5.85;;;;;;;6.42;61.80;96939.31;4948860;28;20030;-90
2021/12/20 08:26:03;;;;;;;10.25;5.00;;;;;;;6.08;62.06;96896.94;4951501;28;20027;-90
2021/12/20 08:28:29;;;;;;;12.70;6.72;;;;;;;6.79;62.32;96949.59;4949040;28;20023;-90
2021/12/20 08:30:58;;;;;;;11.07;5.78;;;;;;;7.99;57.84;96940.66;4949225;28;20069;-90
2021/12/20 08:33:23;;;;;;;7.82;4.68;;;;;;;8.39;55.55;96932.88;4948132;28;20525;-90
2021/12/20 08:35:50;;;;;;;11.85;6.70;;;;;;;7.98;56.62;96938.94;4946625;28;20038;-90
2021/12/20 08:38:19;;;;;;;16.33;7.50;;;;;;;7.66;57.89;96957.81;4945168;28;20121;-91
2021/12/20 08:40:46;;;;;;;13.65;7.60;;;;;;;8.01;57.60;96951.19;4945810;28;20027;-89
2021/12/20 08:43:12;;;;;;;9.93;5.60;;;;;;;7.98;56.55;96946.06;4946791;28;20090;-89
2021/12/20 08:45:38;;;;;;;8.75;5.68;;;;;;;7.57;57.93;96911.28;4950974;28;20046;-90
2021/12/20 08:48:03;;;;;;;14.02;7.43;;;;;;;7.58;57.25;96948.47;4950756;28;20053;-89
2021/12/20 08:50:29;;;;;;;13.00;6.75;;;;;;;7.11;58.56;96891.88;4950852;28;20073;-89
2021/12/20 08:52:55;;;;;;;11.80;7.10;;;;;;;7.44;58.84;96950.25;4948117;28;20465;-90
2021/12/20 08:55:22;;;;;;;13.75;7.72;;;;;;;7.50;57.86;96942.75;4946667;28;20051;-90
2021/12/20 08:57:48;;;;;;;11.00;6.05;;;;;;;7.29;57.73;96913.91;4947343;28;20034;-91
2021/12/20 09:19:44;;;;;;;9.75;5.57;;;;;;;7.30;58.35;96905.81;4912319;28;20166;-90
2021/12/20 09:25:36;;;;;;;9.32;6.15;;;;;;;7.57;58.52;96928.13;4960536;29;20098;-91
2021/12/20 09:28:04;;;;;;;7.28;4.85;;;;;;;7.68;58.71;96951.44;4928184;29;20086;-91
2021/12/20 09:30:30;;;;;;;14.10;7.88;;;;;;;7.92;58.17;96960.59;4931087;29;20062;-91
2021/12/20 09:32:57;;;;;;;11.60;5.82;;;;;;;7.79;57.20;96926.81;4927436;29;20023;-90
2021/12/20 09:35:23;;;;;;;7.75;5.10;;;;;;;7.78;55.80;96926.00;4925975;29;20093;-89
2021/12/20 09:44:08;;;;;;;19.90;8.57;;;;;;;8.64;55.17;96965.00;4962319;28;20023;-91
2021/12/20 09:49:56;;;;;;;16.67;5.32;;;;;;;8.55;53.71;96897.13;4980136;28;20073;-90
2021/12/20 09:52:22;;;;;;;7.05;4.82;;;;;;;8.87;53.54;96950.19;4943866;28;20042;-90
2021/12/20 09:55:22;;;;;;;7.15;4.90;;;;;;;8.75;54.25;96969.63;4927031;29;20019;-90
2021/12/20 09:57:49;;;;;;;7.15;4.82;;;;;;;8.30;54.87;96944.09;4940448;29;20020;-91
2021/12/20 10:04:20;;;;;;;10.30;5.78;;;;;;;8.51;54.64;96969.41;4960865;29;20027;-90
2021/12/20 10:06:54;;;;;;;6.32;4.30;;;;;;;8.34;54.21;96935.81;4940142;29;20052;-91
2021/12/20 10:09:25;;;;;;;14.80;4.45;;;;;;;8.29;54.61;96971.69;4922225;29;20035;-89
2021/12/20 10:12:10;;;;;;;4.72;3.83;;;;;;;7.99;55.10;96961.94;4922568;29;20038;-90
2021/12/20 10:15:33;;;;;;;8.02;4.43;;;;;;;7.62;55.66;96911.88;4923819;29;20523;-88
2021/12/20 10:17:59;;;;;;;10.15;3.60;;;;;;;7.46;56.25;96911.94;4909075;29;20032;-90
2021/12/20 10:20:27;;;;;;;11.57;5.00;;;;;;;7.68;56.47;96943.44;4922973;29;20028;-90
2021/12/20 10:22:54;;;;;;;7.07;4.13;;;;;;;7.61;56.96;96961.59;4923986;29;20541;-90
2021/12/20 10:25:29;;;;;;;7.90;4.93;;;;;;;7.04;58.48;96891.38;4925491;29;20511;-91
2021/12/20 10:28:05;;;;;;;6.60;3.70;;;;;;;7.28;57.35;96922.81;4925718;29;20398;-91
2021/12/20 10:30:34;;;;;;;7.72;4.15;;;;;;;7.14;57.55;96909.50;4923615;29;20397;-91
2021/12/20 10:33:02;;;;;;;13.82;5.15;;;;;;;7.35;58.25;96983.53;4926428;29;20032;-90
2021/12/20 10:35:40;;;;;;;8.68;5.18;;;;;;;7.09;58.44;96945.19;4929120;29;20031;-90
2021/12/20 10:38:37;;;;;;;15.40;8.15;;;;;;;7.33;58.16;96968.63;4943912;29;20082;-89
2021/12/20 10:41:13;;;;;;;14.45;7.47;;;;;;;7.50;58.69;96992.44;4928124;29;20055;-90
2021/12/20 10:43:50;;;;;;;11.98;6.88;;;;;;;7.52;58.46;96982.56;4929728;29;20410;-89
2021/12/20 10:46:25;;;;;;;5.95;4.35;;;;;;;7.44;58.36;96995.47;4929693;29;20061;-89
2021/12/20 10:48:58;;;;;;;4.95;3.33;;;;;;;7.18;57.77;96962.41;4930892;29;20548;-90
2021/12/20 10:51:25;;;;;;;11.90;5.40;;;;;;;7.33;59.37;97003.19;4928161;29;20031;-91
2021/12/20 10:53:59;;;;;;;14.82;6.22;;;;;;;7.45;59.04;96970.56;4927004;29;20050;-89
2021/12/20 10:56:27;;;;;;;8.05;4.80;;;;;;;7.50;58.29;96953.41;4928872;29;20043;-91
2021/12/20 10:58:54;;;;;;;6.55;4.40;;;;;;;7.58;57.75;96958.25;4928829;29;20488;-90
2021/12/20 11:01:59;;;;;;;5.93;3.75;;;;;;;7.40;58.32;96946.03;4928087;29;20058;-91
2021/12/20 11:04:26;;;;;;;11.30;5.35;;;;;;;7.63;58.86;96974.78;4942504;29;20066;-90
2021/12/20 11:09:43;;;;;;;12.00;6.32;;;;;;;7.52;58.98;96982.56;4948469;29;20031;-90
2021/12/20 11:12:13;;;;;;;13.68;7.47;;;;;;;6.90;58.97;96912.63;4931014;29;20066;-89
2021/12/20 11:14:43;;;;;;;13.27;6.78;;;;;;;6.86;59.61;96940.31;4928946;29;20483;-90
2021/12/20 11:17:11;;;;;;;10.85;6.72;;;;;;;6.78;59.74;96915.13;4930423;29;20034;-89
2021/12/20 11:19:46;;;;;;;16.70;9.05;;;;;;;6.80;59.48;96911.41;4930468;29;20023;-90
2021/12/20 11:22:18;;;;;;;11.30;5.53;;;;;;;6.74;61.60;96948.13;4934131;29;20039;-91
2021/12/20 11:25:02;;;;;;;;;;;;;;;;;;;;;
2021/12/20 11:27:32;;;;;;;10.68;4.88;;;;;;;6.65;61.13;96940.66;4948209;29;20118;-91
2021/12/20 11:30:09;;;;;;;10.75;6.07;;;;;;;6.81;62.38;96971.63;4929888;29;20039;-92
2021/12/20 11:32:37;;;;;;;6.63;4.38;;;;;;;6.86;62.96;96982.84;4928542;29;20484;-91
2021/12/20 11:35:04;;;;;;;12.75;7.72;;;;;;;6.54;64.09;96935.97;4929113;29;20062;-91
2021/12/20 11:37:32;;;;;;;7.38;4.45;;;;;;;6.46;63.48;96938.19;4927500;29;20031;-90
2021/12/20 11:40:00;;;;;;;6.80;4.45;;;;;;;6.50;63.86;96935.28;4928528;29;20042;-90
2021/12/20 11:42:28;;;;;;;17.92;5.80;;;;;;;6.62;64.73;96970.06;4928698;29;20162;-90
2021/12/20 13:50:39;;;;;;;15.80;7.30;;;;;;;5.68;56.99;97167.03;4959245;29;20185;-92
2021/12/20 13:53:05;;;;;;;15.05;7.03;;;;;;;5.25;57.35;97107.25;4927487;29;20039;-90
2021/12/20 13:55:31;;;;;;;11.85;5.65;;;;;;;4.95;56.69;97092.78;4928130;29;20059;-92
2021/12/20 13:57:57;;;;;;;10.18;6.40;;;;;;;5.10;57.55;97117.72;4926584;29;20038;-91
2021/12/20 14:00:22;;;;;;;40.85;18.50;;;;;;;5.43;57.69;97191.22;4930576;29;20030;-90
2021/12/20 14:02:50;;;;;;;14.45;7.53;;;;;;;5.05;55.39;97130.28;4931753;29;20086;-91
2021/12/20 14:05:27;;;;;;;11.30;6.80;;;;;;;5.04;55.99;97160.41;4929550;29;20135;-89
2021/12/20 14:08:00;;;;;;;14.45;8.02;;;;;;;4.97;55.25;97154.53;4932605;29;20115;-92
2021/12/20 14:10:30;;;;;;;9.57;5.88;;;;;;;4.55;55.17;97125.56;4933229;29;20031;-90
2021/12/20 14:13:04;;;;;;;19.95;7.25;;;;;;;4.93;55.88;97206.78;4931112;29;20030;-90
2021/12/20 14:15:31;;;;;;;17.55;8.25;;;;;;;4.70;55.71;97172.53;4931190;29;20027;-90
2021/12/20 14:17:59;;;;;;;14.35;6.90;;;;;;;4.79;57.11;97211.88;4947610;29;20078;-90
2021/12/20 14:26:48;;;;;;;11.45;4.57;;;;;;;4.28;56.11;97190.28;4968329;29;20059;-88
2021/12/20 14:29:16;;;;;;;11.35;6.43;;;;;;;4.07;56.04;97160.31;4931414;29;20487;-89
2021/12/20 14:31:50;;;;;;;8.65;5.53;;;;;;;4.09;56.40;97178.78;4930627;29;20027;-89
2021/12/20 14:34:16;;;;;;;11.35;6.00;;;;;;;3.96;56.72;97167.00;4945435;29;20491;-91
2021/12/20 14:36:44;;;;;;;8.88;5.43;;;;;;;4.32;56.60;97228.94;4936198;29;20046;-89
2021/12/20 14:39:21;;;;;;;9.98;6.90;;;;;;;4.24;56.03;97225.78;4931436;29;20093;-91
2021/12/20 14:41:56;;;;;;;22.70;8.23;;;;;;;3.83;57.35;97171.94;4927762;29;20196;-89
2021/12/20 14:47:02;;;;;;;20.08;7.22;;;;;;;3.95;57.27;97228.75;4925340;29;20063;-90
2021/12/20 14:49:36;;;;;;;36.28;14.90;;;;;;;3.89;57.78;97234.28;4909987;29;20023;-90
2021/12/20 14:52:54;;;;;;;;;;;;;;;;;;;;;
2021/12/20 14:55:22;;;;;;;23.45;11.10;;;;;;;3.44;57.64;97195.56;4952640;29;20381;-90
2021/12/20 14:57:53;;;;;;;12.88;6.82;;;;;;;3.35;55.61;97172.13;4931631;29;20062;-89
2021/12/20 15:00:23;;;;;;;10.20;5.78;;;;;;;3.64;55.06;97219.41;4931811;29;20070;-89
2021/12/20 15:02:48;;;;;;;19.50;7.63;;;;;;;3.62;56.10;97231.84;4927628;29;20525;-89
2021/12/20 15:05:15;;;;;;;12.07;6.60;;;;;;;3.54;55.73;97238.34;4914836;29;20035;-89
2021/12/20 15:07:44;;;;;;;15.55;7.10;;;;;;;3.53;56.04;97257.78;4907389;29;20039;-90
2021/12/20 15:16:56;;;;;;;13.43;7.05;;;;;;;3.33;52.62;97220.66;4961556;29;20085;-88
2021/12/20 15:19:22;;;;;;;25.17;9.32;;;;;;;3.08;54.26;97228.66;4944928;29;20024;-90
2021/12/20 15:21:49;;;;;;;20.50;11.32;;;;;;;2.88;54.39;97226.78;4926065;29;20024;-90
2021/12/20 15:24:14;;;;;;;41.95;18.58;;;;;;;2.81;54.75;97224.41;4927894;29;20035;-89
2021/12/20 15:26:40;;;;;;;27.88;10.48;;;;;;;2.76;54.62;97239.56;4931805;29;20112;-90
2021/12/20 15:29:09;;;;;;;24.90;12.32;;;;;;;2.77;54.81;97259.78;4925621;29;20071;-91
2021/12/20 15:31:37;;;;;;;33.47;12.13;;;;;;;2.50;54.44;97214.97;4917700;29;20029;-89
2021/12/20 15:34:03;;;;;;;36.25;14.07;;;;;;;2.83;55.80;97288.63;4937678;29;20053;-91
2021/12/20 15:36:29;;;;;;;38.92;17.27;;;;;;;2.41;55.25;97236.41;4939361;29;20035;-90
2021/12/20 15:38:57;;;;;;;35.80;16.33;;;;;;;2.39;55.20;97259.34;4937419;29;20038;-91
2021/12/20 15:41:25;;;;;;;34.63;14.60;;;;;;;2.42;55.92;97284.78;4935757;29;20126;-89
2021/12/20 15:43:51;;;;;;;47.90;20.55;;;;;;;2.29;55.33;97251.78;4938111;29;20027;-91
2021/12/20 15:46:19;;;;;;;46.17;19.30;;;;;;;2.47;55.20;97294.25;4931672;29;20089;-91
2021/12/20 15:48:46;;;;;;;26.63;10.90;;;;;;;2.86;52.53;97307.00;4928918;29;20031;-89
2021/12/20 15:51:12;;;;;;;25.48;10.02;;;;;;;2.97;52.40;97315.38;4929492;29;20094;-88
2021/12/20 15:53:37;;;;;;;21.98;7.45;;;;;;;3.01;52.14;97323.16;4927656;29;20035;-89
2021/12/20 15:59:25;;;;;;;21.92;11.20;;;;;;;2.88;54.25;97343.00;4960786;29;20078;-90
2021/12/20 16:01:51;;;;;;;20.05;10.23;;;;;;;2.76;53.54;97317.00;4929075;29;20521;-90
2021/12/20 16:04:17;;;;;;;17.80;9.52;;;;;;;2.78;53.37;97314.31;4929088;29;20031;-91
2021/12/20 16:10:05;;;;;;;30.77;13.98;;;;;;;2.65;56.40;97367.53;4975248;28;20094;-90
2021/12/20 16:12:31;;;;;;;41.05;20.52;;;;;;;2.27;56.06;97312.53;4928851;29;20031;-89
2021/12/20 16:14:57;;;;;;;38.80;18.60;;;;;;;2.43;57.33;97365.69;4914709;29;20032;-90
2021/12/20 16:17:22;;;;;;;61.20;23.20;;;;;;;2.37;57.12;97366.72;4910363;29;20484;-91
2021/12/20 16:19:51;;;;;;;24.38;12.70;;;;;;;2.50;56.47;97365.41;4910935;29;20031;-89
2021/12/20 16:22:17;;;;;;;31.20;13.27;;;;;;;2.26;56.55;97346.88;4911037;29;20039;-91
2021/12/20 16:24:43;;;;;;;37.15;15.57;;;;;;;2.53;56.33;97386.41;4912271;29;20087;-89
2021/12/20 16:27:12;;;;;;;39.85;15.15;;;;;;;2.27;56.91;97335.41;4911116;29;20028;-93
2021/12/20 16:29:38;;;;;;;35.50;16.52;;;;;;;2.65;56.70;97404.50;4928840;29;20028;-90
2021/12/20 16:32:07;;;;;;;35.45;15.02;;;;;;;2.50;58.00;97394.44;4917028;29;20031;-90
2021/12/20 16:34:33;;;;;;;35.17;15.98;;;;;;;2.21;58.62;97352.31;4931111;29;20066;-91
2021/12/20 16:37:00;;;;;;;33.00;15.50;;;;;;;2.46;58.82;97376.97;4933216;29;20035;-91
2021/12/20 16:39:31;;;;;;;42.63;18.67;;;;;;;2.49;59.50;97397.97;4932431;29;20047;-91